sensor_id;sensor_type;location;lat;lon;timestamp;P1;durP1;ratioP1;P2;durP2;ratioP2
45077;SDS011;60508;42.622;25.416;2023-07-09T00:02:12;3.33;;;2.70;;
45077;SDS011;60508;42.622;25.416;2023-07-09T00:04:52;5.63;;;2.40;;
45077;SDS011;60508;42.622;25.416;2023-07-09T00:07:32;4.38;;;2.40;;
45077;SDS011;60508;42.622;25.416;2023-07-09T00:10:14;3.38;;;2.47;;
45077;SDS011;60508;42.622;25.416;2023-07-09T00:12:46;10.07;;;4.17;;
45077;SDS011;60508;42.622;25.416;2023-07-09T00:15:19;5.70;;;2.30;;
45077;SDS011;60508;42.622;25.416;2023-07-09T00:17:45;12.10;;;2.72;;
45077;SDS011;60508;42.622;25.416;2023-07-09T00:20:14;4.00;;;3.00;;
45077;SDS011;60508;42.622;25.416;2023-07-09T00:22:44;7.55;;;2.53;;
45077;SDS011;60508;42.622;25.416;2023-07-09T00:25:19;3.28;;;2.50;;
45077;SDS011;60508;42.622;25.416;2023-07-09T00:28:10;9.65;;;2.58;;
45077;SDS011;60508;42.622;25.416;2023-07-09T00:30:45;7.97;;;2.42;;
45077;SDS011;60508;42.622;25.416;2023-07-09T00:33:13;3.25;;;1.98;;
45077;SDS011;60508;42.622;25.416;2023-07-09T00:35:42;9.82;;;2.70;;
45077;SDS011;60508;42.622;25.416;2023-07-09T00:38:12;3.38;;;2.45;;
45077;SDS011;60508;42.622;25.416;2023-07-09T00:40:45;10.68;;;2.75;;
45077;SDS011;60508;42.622;25.416;2023-07-09T00:43:21;4.30;;;2.47;;
45077;SDS011;60508;42.622;25.416;2023-07-09T00:46:08;5.80;;;2.20;;
45077;SDS011;60508;42.622;25.416;2023-07-09T00:48:47;7.88;;;2.75;;
45077;SDS011;60508;42.622;25.416;2023-07-09T00:51:18;8.73;;;2.40;;
45077;SDS011;60508;42.622;25.416;2023-07-09T00:53:49;4.22;;;2.97;;
45077;SDS011;60508;42.622;25.416;2023-07-09T00:56:31;7.10;;;3.13;;
45077;SDS011;60508;42.622;25.416;2023-07-09T00:59:05;5.30;;;2.70;;
45077;SDS011;60508;42.622;25.416;2023-07-09T01:01:38;6.82;;;3.53;;
45077;SDS011;60508;42.622;25.416;2023-07-09T01:04:07;6.90;;;2.78;;
45077;SDS011;60508;42.622;25.416;2023-07-09T01:06:41;4.20;;;2.78;;
45077;SDS011;60508;42.622;25.416;2023-07-09T01:09:15;14.70;;;2.40;;
45077;SDS011;60508;42.622;25.416;2023-07-09T01:11:43;11.77;;;2.47;;
45077;SDS011;60508;42.622;25.416;2023-07-09T01:14:10;6.95;;;2.83;;
45077;SDS011;60508;42.622;25.416;2023-07-09T01:16:47;6.18;;;2.65;;
45077;SDS011;60508;42.622;25.416;2023-07-09T01:19:17;12.43;;;2.58;;
45077;SDS011;60508;42.622;25.416;2023-07-09T01:22:00;10.90;;;2.92;;
45077;SDS011;60508;42.622;25.416;2023-07-09T01:27:44;2.83;;;2.50;;
45077;SDS011;60508;42.622;25.416;2023-07-09T01:30:23;4.85;;;2.70;;
45077;SDS011;60508;42.622;25.416;2023-07-09T01:33:08;7.85;;;2.45;;
45077;SDS011;60508;42.622;25.416;2023-07-09T01:35:36;3.70;;;2.72;;
45077;SDS011;60508;42.622;25.416;2023-07-09T01:38:08;5.68;;;2.55;;
45077;SDS011;60508;42.622;25.416;2023-07-09T01:40:36;5.18;;;2.78;;
45077;SDS011;60508;42.622;25.416;2023-07-09T01:43:12;2.45;;;2.22;;
45077;SDS011;60508;42.622;25.416;2023-07-09T01:45:39;4.57;;;3.28;;
45077;SDS011;60508;42.622;25.416;2023-07-09T01:48:05;4.38;;;2.42;;
45077;SDS011;60508;42.622;25.416;2023-07-09T01:50:32;6.00;;;2.70;;
45077;SDS011;60508;42.622;25.416;2023-07-09T01:53:04;9.02;;;2.80;;
45077;SDS011;60508;42.622;25.416;2023-07-09T01:55:31;2.63;;;2.00;;
45077;SDS011;60508;42.622;25.416;2023-07-09T01:57:58;10.65;;;2.67;;
45077;SDS011;60508;42.622;25.416;2023-07-09T02:00:25;5.93;;;2.28;;
45077;SDS011;60508;42.622;25.416;2023-07-09T02:02:52;6.50;;;2.40;;
45077;SDS011;60508;42.622;25.416;2023-07-09T02:05:29;4.70;;;2.45;;
45077;SDS011;60508;42.622;25.416;2023-07-09T02:07:57;6.85;;;2.40;;
45077;SDS011;60508;42.622;25.416;2023-07-09T02:10:25;8.10;;;2.33;;
45077;SDS011;60508;42.622;25.416;2023-07-09T02:12:52;5.95;;;2.60;;
45077;SDS011;60508;42.622;25.416;2023-07-09T02:15:19;9.95;;;3.33;;
45077;SDS011;60508;42.622;25.416;2023-07-09T02:17:52;9.07;;;3.28;;
45077;SDS011;60508;42.622;25.416;2023-07-09T02:20:19;4.57;;;2.53;;
45077;SDS011;60508;42.622;25.416;2023-07-09T02:22:49;4.38;;;2.55;;
45077;SDS011;60508;42.622;25.416;2023-07-09T02:25:16;4.95;;;2.10;;
45077;SDS011;60508;42.622;25.416;2023-07-09T02:27:50;3.63;;;2.47;;
45077;SDS011;60508;42.622;25.416;2023-07-09T02:30:18;4.72;;;2.58;;
45077;SDS011;60508;42.622;25.416;2023-07-09T02:32:46;4.75;;;2.42;;
45077;SDS011;60508;42.622;25.416;2023-07-09T02:35:23;5.68;;;2.05;;
45077;SDS011;60508;42.622;25.416;2023-07-09T02:37:52;5.87;;;2.40;;
45077;SDS011;60508;42.622;25.416;2023-07-09T02:40:18;4.00;;;2.00;;
45077;SDS011;60508;42.622;25.416;2023-07-09T02:42:49;2.88;;;1.90;;
45077;SDS011;60508;42.622;25.416;2023-07-09T02:47:45;4.03;;;1.88;;
45077;SDS011;60508;42.622;25.416;2023-07-09T02:50:13;3.42;;;2.08;;
45077;SDS011;60508;42.622;25.416;2023-07-09T02:52:48;13.25;;;2.92;;
45077;SDS011;60508;42.622;25.416;2023-07-09T02:55:15;4.03;;;2.20;;
45077;SDS011;60508;42.622;25.416;2023-07-09T02:57:41;4.97;;;2.60;;
45077;SDS011;60508;42.622;25.416;2023-07-09T03:00:08;10.82;;;2.47;;
45077;SDS011;60508;42.622;25.416;2023-07-09T03:02:36;2.80;;;2.45;;
45077;SDS011;60508;42.622;25.416;2023-07-09T03:05:11;4.72;;;2.25;;
45077;SDS011;60508;42.622;25.416;2023-07-09T03:07:38;5.03;;;2.65;;
45077;SDS011;60508;42.622;25.416;2023-07-09T03:10:05;5.43;;;2.55;;
45077;SDS011;60508;42.622;25.416;2023-07-09T03:12:37;5.93;;;2.25;;
45077;SDS011;60508;42.622;25.416;2023-07-09T03:15:04;4.32;;;2.75;;
45077;SDS011;60508;42.622;25.416;2023-07-09T03:17:31;5.45;;;2.72;;
45077;SDS011;60508;42.622;25.416;2023-07-09T03:19:57;3.92;;;2.40;;
45077;SDS011;60508;42.622;25.416;2023-07-09T03:22:25;10.73;;;2.92;;
45077;SDS011;60508;42.622;25.416;2023-07-09T03:24:52;5.32;;;3.13;;
45077;SDS011;60508;42.622;25.416;2023-07-09T03:27:18;6.15;;;2.20;;
45077;SDS011;60508;42.622;25.416;2023-07-09T03:29:45;7.70;;;3.08;;
45077;SDS011;60508;42.622;25.416;2023-07-09T03:32:12;6.03;;;3.08;;
45077;SDS011;60508;42.622;25.416;2023-07-09T03:34:39;6.97;;;3.63;;
45077;SDS011;60508;42.622;25.416;2023-07-09T03:37:05;5.85;;;3.17;;
45077;SDS011;60508;42.622;25.416;2023-07-09T03:39:32;7.65;;;2.55;;
45077;SDS011;60508;42.622;25.416;2023-07-09T03:42:07;5.80;;;2.33;;
45077;SDS011;60508;42.622;25.416;2023-07-09T03:44:34;4.55;;;2.65;;
45077;SDS011;60508;42.622;25.416;2023-07-09T03:47:01;7.00;;;2.78;;
45077;SDS011;60508;42.622;25.416;2023-07-09T03:49:27;12.00;;;3.10;;
45077;SDS011;60508;42.622;25.416;2023-07-09T03:51:54;5.75;;;2.67;;
45077;SDS011;60508;42.622;25.416;2023-07-09T03:54:32;8.85;;;2.45;;
45077;SDS011;60508;42.622;25.416;2023-07-09T03:56:59;3.42;;;2.58;;
45077;SDS011;60508;42.622;25.416;2023-07-09T03:59:25;3.80;;;2.72;;
45077;SDS011;60508;42.622;25.416;2023-07-09T04:01:52;6.75;;;2.50;;
45077;SDS011;60508;42.622;25.416;2023-07-09T04:04:22;7.60;;;2.90;;
45077;SDS011;60508;42.622;25.416;2023-07-09T04:06:55;5.30;;;2.42;;
45077;SDS011;60508;42.622;25.416;2023-07-09T04:09:22;5.47;;;3.47;;
45077;SDS011;60508;42.622;25.416;2023-07-09T04:11:49;6.13;;;3.35;;
45077;SDS011;60508;42.622;25.416;2023-07-09T04:14:15;6.78;;;4.03;;
45077;SDS011;60508;42.622;25.416;2023-07-09T04:16:42;5.05;;;3.47;;
45077;SDS011;60508;42.622;25.416;2023-07-09T04:19:09;6.15;;;3.90;;
45077;SDS011;60508;42.622;25.416;2023-07-09T04:21:42;6.70;;;4.40;;
45077;SDS011;60508;42.622;25.416;2023-07-09T04:24:09;7.78;;;4.97;;
45077;SDS011;60508;42.622;25.416;2023-07-09T04:26:35;8.98;;;3.80;;
45077;SDS011;60508;42.622;25.416;2023-07-09T04:29:13;6.13;;;4.55;;
45077;SDS011;60508;42.622;25.416;2023-07-09T04:31:41;9.20;;;4.55;;
45077;SDS011;60508;42.622;25.416;2023-07-09T04:34:08;6.80;;;4.00;;
45077;SDS011;60508;42.622;25.416;2023-07-09T04:36:42;6.78;;;4.13;;
45077;SDS011;60508;42.622;25.416;2023-07-09T04:39:09;9.43;;;5.85;;
45077;SDS011;60508;42.622;25.416;2023-07-09T04:41:36;7.15;;;4.55;;
45077;SDS011;60508;42.622;25.416;2023-07-09T04:44:03;7.00;;;5.22;;
45077;SDS011;60508;42.622;25.416;2023-07-09T04:46:30;6.38;;;3.70;;
45077;SDS011;60508;42.622;25.416;2023-07-09T04:48:56;8.82;;;5.68;;
45077;SDS011;60508;42.622;25.416;2023-07-09T04:51:23;5.47;;;4.05;;
45077;SDS011;60508;42.622;25.416;2023-07-09T04:53:50;10.77;;;4.63;;
45077;SDS011;60508;42.622;25.416;2023-07-09T04:56:17;6.05;;;3.88;;
45077;SDS011;60508;42.622;25.416;2023-07-09T04:58:44;6.95;;;3.72;;
45077;SDS011;60508;42.622;25.416;2023-07-09T05:01:19;5.65;;;3.00;;
45077;SDS011;60508;42.622;25.416;2023-07-09T05:03:46;10.82;;;3.78;;
45077;SDS011;60508;42.622;25.416;2023-07-09T05:06:12;9.43;;;3.10;;
45077;SDS011;60508;42.622;25.416;2023-07-09T05:08:47;9.15;;;5.55;;
45077;SDS011;60508;42.622;25.416;2023-07-09T05:11:14;6.78;;;5.05;;
45077;SDS011;60508;42.622;25.416;2023-07-09T05:13:41;12.30;;;6.30;;
45077;SDS011;60508;42.622;25.416;2023-07-09T05:16:08;4.95;;;2.72;;
45077;SDS011;60508;42.622;25.416;2023-07-09T05:18:44;8.18;;;3.30;;
45077;SDS011;60508;42.622;25.416;2023-07-09T05:21:12;4.93;;;3.38;;
45077;SDS011;60508;42.622;25.416;2023-07-09T05:23:39;5.63;;;2.90;;
45077;SDS011;60508;42.622;25.416;2023-07-09T05:26:11;8.23;;;3.70;;
45077;SDS011;60508;42.622;25.416;2023-07-09T05:28:38;12.35;;;3.83;;
45077;SDS011;60508;42.622;25.416;2023-07-09T05:31:05;4.10;;;2.80;;
45077;SDS011;60508;42.622;25.416;2023-07-09T05:33:32;8.75;;;5.25;;
45077;SDS011;60508;42.622;25.416;2023-07-09T05:35:59;5.65;;;3.90;;
45077;SDS011;60508;42.622;25.416;2023-07-09T05:38:26;8.15;;;4.00;;
45077;SDS011;60508;42.622;25.416;2023-07-09T05:41:02;9.02;;;6.50;;
45077;SDS011;60508;42.622;25.416;2023-07-09T05:46:05;6.18;;;3.70;;
45077;SDS011;60508;42.622;25.416;2023-07-09T05:48:34;6.15;;;4.03;;
45077;SDS011;60508;42.622;25.416;2023-07-09T05:51:03;4.97;;;2.78;;
45077;SDS011;60508;42.622;25.416;2023-07-09T05:53:36;6.93;;;5.03;;
45077;SDS011;60508;42.622;25.416;2023-07-09T05:56:03;8.20;;;2.75;;
45077;SDS011;60508;42.622;25.416;2023-07-09T05:58:29;5.93;;;3.63;;
45077;SDS011;60508;42.622;25.416;2023-07-09T06:00:56;6.57;;;3.90;;
45077;SDS011;60508;42.622;25.416;2023-07-09T06:03:24;7.82;;;4.40;;
45077;SDS011;60508;42.622;25.416;2023-07-09T06:05:53;5.55;;;4.63;;
45077;SDS011;60508;42.622;25.416;2023-07-09T06:08:28;3.97;;;3.67;;
45077;SDS011;60508;42.622;25.416;2023-07-09T06:10:56;6.03;;;3.17;;
45077;SDS011;60508;42.622;25.416;2023-07-09T06:13:28;7.32;;;4.50;;
45077;SDS011;60508;42.622;25.416;2023-07-09T06:15:59;5.22;;;3.72;;
45077;SDS011;60508;42.622;25.416;2023-07-09T06:18:28;8.48;;;4.32;;
45077;SDS011;60508;42.622;25.416;2023-07-09T06:21:04;5.47;;;3.47;;
45077;SDS011;60508;42.622;25.416;2023-07-09T06:23:31;9.13;;;4.28;;
45077;SDS011;60508;42.622;25.416;2023-07-09T06:25:57;5.82;;;4.15;;
45077;SDS011;60508;42.622;25.416;2023-07-09T06:28:30;3.55;;;2.90;;
45077;SDS011;60508;42.622;25.416;2023-07-09T06:30:57;4.43;;;3.67;;
45077;SDS011;60508;42.622;25.416;2023-07-09T06:33:24;6.43;;;3.42;;
45077;SDS011;60508;42.622;25.416;2023-07-09T06:35:53;6.15;;;3.65;;
45077;SDS011;60508;42.622;25.416;2023-07-09T06:38:21;5.72;;;4.18;;
45077;SDS011;60508;42.622;25.416;2023-07-09T06:40:48;7.50;;;4.70;;
45077;SDS011;60508;42.622;25.416;2023-07-09T06:43:24;8.73;;;5.43;;
45077;SDS011;60508;42.622;25.416;2023-07-09T06:48:22;7.65;;;4.38;;
45077;SDS011;60508;42.622;25.416;2023-07-09T06:50:58;6.28;;;4.93;;
45077;SDS011;60508;42.622;25.416;2023-07-09T06:53:28;6.63;;;3.75;;
45077;SDS011;60508;42.622;25.416;2023-07-09T06:55:59;9.73;;;3.42;;
45077;SDS011;60508;42.622;25.416;2023-07-09T06:58:31;5.93;;;3.20;;
45077;SDS011;60508;42.622;25.416;2023-07-09T07:01:02;6.15;;;3.00;;
45077;SDS011;60508;42.622;25.416;2023-07-09T07:03:40;6.25;;;3.03;;
45077;SDS011;60508;42.622;25.416;2023-07-09T07:06:07;5.32;;;4.05;;
45077;SDS011;60508;42.622;25.416;2023-07-09T07:08:34;3.80;;;2.58;;
45077;SDS011;60508;42.622;25.416;2023-07-09T07:11:09;5.97;;;3.58;;
45077;SDS011;60508;42.622;25.416;2023-07-09T07:13:37;3.53;;;2.85;;
45077;SDS011;60508;42.622;25.416;2023-07-09T07:16:06;6.10;;;3.05;;
45077;SDS011;60508;42.622;25.416;2023-07-09T07:21:09;4.07;;;2.38;;
45077;SDS011;60508;42.622;25.416;2023-07-09T07:23:36;3.63;;;2.70;;
45077;SDS011;60508;42.622;25.416;2023-07-09T07:26:03;2.75;;;2.45;;
45077;SDS011;60508;42.622;25.416;2023-07-09T07:28:37;3.28;;;2.70;;
45077;SDS011;60508;42.622;25.416;2023-07-09T07:31:05;3.03;;;2.53;;
45077;SDS011;60508;42.622;25.416;2023-07-09T07:33:39;7.85;;;2.33;;
45077;SDS011;60508;42.622;25.416;2023-07-09T07:36:07;2.35;;;2.15;;
45077;SDS011;60508;42.622;25.416;2023-07-09T07:38:36;3.22;;;2.92;;
45077;SDS011;60508;42.622;25.416;2023-07-09T07:41:02;2.67;;;2.03;;
45077;SDS011;60508;42.622;25.416;2023-07-09T07:43:29;6.22;;;3.00;;
45077;SDS011;60508;42.622;25.416;2023-07-09T07:46:05;3.33;;;2.00;;
45077;SDS011;60508;42.622;25.416;2023-07-09T07:48:33;4.60;;;2.40;;
45077;SDS011;60508;42.622;25.416;2023-07-09T07:51:00;6.90;;;3.00;;
45077;SDS011;60508;42.622;25.416;2023-07-09T07:56:04;4.40;;;2.00;;
45077;SDS011;60508;42.622;25.416;2023-07-09T07:58:31;4.50;;;2.08;;
45077;SDS011;60508;42.622;25.416;2023-07-09T08:00:58;2.67;;;2.00;;
45077;SDS011;60508;42.622;25.416;2023-07-09T08:03:33;3.30;;;2.22;;
45077;SDS011;60508;42.622;25.416;2023-07-09T08:06:00;3.33;;;2.50;;
45077;SDS011;60508;42.622;25.416;2023-07-09T08:08:27;9.13;;;3.30;;
45077;SDS011;60508;42.622;25.416;2023-07-09T08:11:02;5.25;;;3.08;;
45077;SDS011;60508;42.622;25.416;2023-07-09T08:13:31;3.10;;;2.67;;
45077;SDS011;60508;42.622;25.416;2023-07-09T08:15:58;4.75;;;2.33;;
45077;SDS011;60508;42.622;25.416;2023-07-09T08:18:31;2.50;;;2.03;;
45077;SDS011;60508;42.622;25.416;2023-07-09T08:20:59;8.43;;;2.20;;
45077;SDS011;60508;42.622;25.416;2023-07-09T08:23:26;4.30;;;2.60;;
45077;SDS011;60508;42.622;25.416;2023-07-09T08:25:53;7.82;;;2.00;;
45077;SDS011;60508;42.622;25.416;2023-07-09T08:28:25;6.63;;;2.53;;
45077;SDS011;60508;42.622;25.416;2023-07-09T08:30:52;7.38;;;3.00;;
45077;SDS011;60508;42.622;25.416;2023-07-09T08:33:29;4.32;;;2.15;;
45077;SDS011;60508;42.622;25.416;2023-07-09T08:35:56;4.03;;;2.30;;
45077;SDS011;60508;42.622;25.416;2023-07-09T08:38:23;2.58;;;2.00;;
45077;SDS011;60508;42.622;25.416;2023-07-09T08:41:24;3.15;;;2.40;;
45077;SDS011;60508;42.622;25.416;2023-07-09T08:47:00;3.05;;;2.40;;
45077;SDS011;60508;42.622;25.416;2023-07-09T08:49:35;4.43;;;2.63;;
45077;SDS011;60508;42.622;25.416;2023-07-09T08:52:10;8.77;;;3.35;;
45077;SDS011;60508;42.622;25.416;2023-07-09T08:54:44;9.18;;;4.00;;
45077;SDS011;60508;42.622;25.416;2023-07-09T08:57:26;5.82;;;4.78;;
45077;SDS011;60508;42.622;25.416;2023-07-09T09:00:13;3.78;;;3.08;;
45077;SDS011;60508;42.622;25.416;2023-07-09T09:05:22;4.70;;;3.53;;
45077;SDS011;60508;42.622;25.416;2023-07-09T09:08:36;3.55;;;2.65;;
45077;SDS011;60508;42.622;25.416;2023-07-09T09:10:42;3.53;;;2.63;;
45077;SDS011;60508;42.622;25.416;2023-07-09T09:13:14;5.30;;;3.30;;
45077;SDS011;60508;42.622;25.416;2023-07-09T09:15:50;4.63;;;2.30;;
45077;SDS011;60508;42.622;25.416;2023-07-09T09:18:19;4.80;;;3.20;;
45077;SDS011;60508;42.622;25.416;2023-07-09T09:20:57;3.53;;;2.83;;
45077;SDS011;60508;42.622;25.416;2023-07-09T09:23:38;4.60;;;2.53;;
45077;SDS011;60508;42.622;25.416;2023-07-09T09:26:21;8.13;;;3.17;;
45077;SDS011;60508;42.622;25.416;2023-07-09T09:28:52;2.53;;;2.20;;
45077;SDS011;60508;42.622;25.416;2023-07-09T09:31:27;3.08;;;2.58;;
45077;SDS011;60508;42.622;25.416;2023-07-09T09:36:24;6.63;;;2.70;;
45077;SDS011;60508;42.622;25.416;2023-07-09T09:38:53;2.95;;;2.55;;
45077;SDS011;60508;42.622;25.416;2023-07-09T09:41:21;4.18;;;2.50;;
45077;SDS011;60508;42.622;25.416;2023-07-09T09:43:53;3.83;;;2.53;;
45077;SDS011;60508;42.622;25.416;2023-07-09T09:46:22;2.88;;;2.33;;
45077;SDS011;60508;42.622;25.416;2023-07-09T09:49:02;7.30;;;2.20;;
45077;SDS011;60508;42.622;25.416;2023-07-09T09:51:29;3.47;;;2.03;;
45077;SDS011;60508;42.622;25.416;2023-07-09T09:54:00;2.33;;;1.67;;
45077;SDS011;60508;42.622;25.416;2023-07-09T09:56:29;5.63;;;2.17;;
45077;SDS011;60508;42.622;25.416;2023-07-09T09:59:18;9.07;;;2.83;;
45077;SDS011;60508;42.622;25.416;2023-07-09T10:01:47;3.55;;;2.45;;
45077;SDS011;60508;42.622;25.416;2023-07-09T10:04:33;7.80;;;2.08;;
45077;SDS011;60508;42.622;25.416;2023-07-09T10:07:05;7.50;;;2.72;;
45077;SDS011;60508;42.622;25.416;2023-07-09T10:15:13;1.90;;;1.80;;
45077;SDS011;60508;42.622;25.416;2023-07-09T10:17:54;2.63;;;2.22;;
45077;SDS011;60508;42.622;25.416;2023-07-09T10:26:03;4.75;;;2.42;;
45077;SDS011;60508;42.622;25.416;2023-07-09T10:34:13;2.90;;;1.58;;
45077;SDS011;60508;42.622;25.416;2023-07-09T10:39:47;4.53;;;1.98;;
45077;SDS011;60508;42.622;25.416;2023-07-09T10:45:02;2.45;;;1.88;;
45077;SDS011;60508;42.622;25.416;2023-07-09T10:47:43;2.53;;;1.80;;
45077;SDS011;60508;42.622;25.416;2023-07-09T10:50:18;3.10;;;1.98;;
45077;SDS011;60508;42.622;25.416;2023-07-09T10:52:55;3.05;;;2.20;;
45077;SDS011;60508;42.622;25.416;2023-07-09T10:55:35;1.98;;;1.63;;
45077;SDS011;60508;42.622;25.416;2023-07-09T10:58:34;2.00;;;1.73;;
45077;SDS011;60508;42.622;25.416;2023-07-09T11:01:02;6.40;;;2.55;;
45077;SDS011;60508;42.622;25.416;2023-07-09T11:03:50;1.63;;;1.52;;
45077;SDS011;60508;42.622;25.416;2023-07-09T11:06:24;2.42;;;1.60;;
45077;SDS011;60508;42.622;25.416;2023-07-09T11:09:06;3.38;;;1.80;;
45077;SDS011;60508;42.622;25.416;2023-07-09T11:11:43;2.38;;;1.70;;
45077;SDS011;60508;42.622;25.416;2023-07-09T11:14:31;2.20;;;1.85;;
45077;SDS011;60508;42.622;25.416;2023-07-09T11:17:05;3.15;;;2.35;;
45077;SDS011;60508;42.622;25.416;2023-07-09T11:19:54;5.47;;;2.35;;
45077;SDS011;60508;42.622;25.416;2023-07-09T11:22:40;2.70;;;2.00;;
45077;SDS011;60508;42.622;25.416;2023-07-09T11:25:11;6.13;;;2.35;;
45077;SDS011;60508;42.622;25.416;2023-07-09T11:31:54;2.65;;;2.10;;
45077;SDS011;60508;42.622;25.416;2023-07-09T11:34:10;3.60;;;2.08;;
45077;SDS011;60508;42.622;25.416;2023-07-09T11:41:58;4.10;;;2.55;;
45077;SDS011;60508;42.622;25.416;2023-07-09T11:44:26;2.20;;;1.80;;
45077;SDS011;60508;42.622;25.416;2023-07-09T11:49:56;3.92;;;1.80;;
45077;SDS011;60508;42.622;25.416;2023-07-09T11:52:46;2.75;;;2.53;;
45077;SDS011;60508;42.622;25.416;2023-07-09T11:55:40;5.32;;;2.78;;
45077;SDS011;60508;42.622;25.416;2023-07-09T11:58:15;4.47;;;2.40;;
45077;SDS011;60508;42.622;25.416;2023-07-09T12:00:47;2.17;;;1.98;;
45077;SDS011;60508;42.622;25.416;2023-07-09T12:03:20;3.38;;;2.10;;
45077;SDS011;60508;42.622;25.416;2023-07-09T12:06:04;2.22;;;2.00;;
45077;SDS011;60508;42.622;25.416;2023-07-09T12:08:47;3.92;;;1.58;;
45077;SDS011;60508;42.622;25.416;2023-07-09T12:11:27;4.30;;;2.63;;
45077;SDS011;60508;42.622;25.416;2023-07-09T12:14:00;3.25;;;2.60;;
45077;SDS011;60508;42.622;25.416;2023-07-09T12:16:36;2.42;;;1.70;;
45077;SDS011;60508;42.622;25.416;2023-07-09T12:19:05;2.50;;;2.30;;
45077;SDS011;60508;42.622;25.416;2023-07-09T12:21:39;2.58;;;2.38;;
45077;SDS011;60508;42.622;25.416;2023-07-09T12:24:21;4.32;;;2.03;;
45077;SDS011;60508;42.622;25.416;2023-07-09T12:27:00;5.18;;;2.70;;
45077;SDS011;60508;42.622;25.416;2023-07-09T12:29:34;2.25;;;2.05;;
45077;SDS011;60508;42.622;25.416;2023-07-09T12:32:03;5.43;;;2.13;;
45077;SDS011;60508;42.622;25.416;2023-07-09T12:34:36;4.22;;;2.35;;
45077;SDS011;60508;42.622;25.416;2023-07-09T12:37:02;2.63;;;2.03;;
45077;SDS011;60508;42.622;25.416;2023-07-09T12:39:37;6.45;;;2.63;;
45077;SDS011;60508;42.622;25.416;2023-07-09T12:42:04;5.05;;;2.70;;
45077;SDS011;60508;42.622;25.416;2023-07-09T12:44:36;5.68;;;2.25;;
45077;SDS011;60508;42.622;25.416;2023-07-09T12:47:03;2.58;;;2.38;;
45077;SDS011;60508;42.622;25.416;2023-07-09T12:49:30;6.97;;;2.40;;
45077;SDS011;60508;42.622;25.416;2023-07-09T12:52:08;3.47;;;2.28;;
45077;SDS011;60508;42.622;25.416;2023-07-09T12:54:41;9.32;;;2.08;;
45077;SDS011;60508;42.622;25.416;2023-07-09T12:57:13;5.13;;;1.80;;
45077;SDS011;60508;42.622;25.416;2023-07-09T12:59:51;3.72;;;2.38;;
45077;SDS011;60508;42.622;25.416;2023-07-09T13:02:25;2.78;;;2.47;;
45077;SDS011;60508;42.622;25.416;2023-07-09T13:05:00;2.90;;;2.38;;
45077;SDS011;60508;42.622;25.416;2023-07-09T13:07:33;4.20;;;2.38;;
45077;SDS011;60508;42.622;25.416;2023-07-09T13:10:45;2.70;;;2.35;;
45077;SDS011;60508;42.622;25.416;2023-07-09T13:13:04;4.55;;;2.35;;
45077;SDS011;60508;42.622;25.416;2023-07-09T13:18:02;3.53;;;2.75;;
45077;SDS011;60508;42.622;25.416;2023-07-09T13:20:31;5.78;;;2.15;;
45077;SDS011;60508;42.622;25.416;2023-07-09T13:22:59;6.70;;;2.45;;
45077;SDS011;60508;42.622;25.416;2023-07-09T13:25:38;3.65;;;2.42;;
45077;SDS011;60508;42.622;25.416;2023-07-09T13:28:28;5.13;;;2.78;;
45077;SDS011;60508;42.622;25.416;2023-07-09T13:30:56;5.50;;;2.38;;
45077;SDS011;60508;42.622;25.416;2023-07-09T13:33:27;5.53;;;3.20;;
45077;SDS011;60508;42.622;25.416;2023-07-09T13:35:54;2.88;;;2.42;;
45077;SDS011;60508;42.622;25.416;2023-07-09T13:38:26;3.20;;;2.75;;
45077;SDS011;60508;42.622;25.416;2023-07-09T13:40:55;3.45;;;2.80;;
45077;SDS011;60508;42.622;25.416;2023-07-09T13:43:28;7.40;;;2.47;;
45077;SDS011;60508;42.622;25.416;2023-07-09T13:45:57;3.13;;;1.95;;
45077;SDS011;60508;42.622;25.416;2023-07-09T13:48:33;3.97;;;2.22;;
45077;SDS011;60508;42.622;25.416;2023-07-09T13:51:01;3.15;;;2.70;;
45077;SDS011;60508;42.622;25.416;2023-07-09T13:53:48;3.00;;;2.22;;
45077;SDS011;60508;42.622;25.416;2023-07-09T13:56:20;3.28;;;2.28;;
45077;SDS011;60508;42.622;25.416;2023-07-09T13:58:48;3.67;;;2.13;;
45077;SDS011;60508;42.622;25.416;2023-07-09T14:01:20;4.28;;;2.92;;
45077;SDS011;60508;42.622;25.416;2023-07-09T14:03:55;7.03;;;1.83;;
45077;SDS011;60508;42.622;25.416;2023-07-09T14:06:25;2.30;;;2.10;;
45077;SDS011;60508;42.622;25.416;2023-07-09T14:09:01;1.95;;;1.80;;
45077;SDS011;60508;42.622;25.416;2023-07-09T14:11:28;6.75;;;2.55;;
45077;SDS011;60508;42.622;25.416;2023-07-09T14:13:55;2.53;;;1.75;;
45077;SDS011;60508;42.622;25.416;2023-07-09T14:16:25;3.83;;;2.08;;
45077;SDS011;60508;42.622;25.416;2023-07-09T14:19:03;7.55;;;1.80;;
45077;SDS011;60508;42.622;25.416;2023-07-09T14:21:35;5.78;;;1.98;;
45077;SDS011;60508;42.622;25.416;2023-07-09T14:24:04;2.33;;;2.13;;
45077;SDS011;60508;42.622;25.416;2023-07-09T14:26:39;2.60;;;2.20;;
45077;SDS011;60508;42.622;25.416;2023-07-09T14:29:08;3.80;;;1.92;;
45077;SDS011;60508;42.622;25.416;2023-07-09T14:31:44;5.28;;;1.98;;
45077;SDS011;60508;42.622;25.416;2023-07-09T14:36:58;2.40;;;2.20;;
45077;SDS011;60508;42.622;25.416;2023-07-09T14:39:34;2.47;;;2.15;;
45077;SDS011;60508;42.622;25.416;2023-07-09T14:42:00;2.90;;;2.22;;
45077;SDS011;60508;42.622;25.416;2023-07-09T14:44:36;5.13;;;2.83;;
45077;SDS011;60508;42.622;25.416;2023-07-09T14:47:07;5.45;;;2.25;;
45077;SDS011;60508;42.622;25.416;2023-07-09T14:49:49;5.10;;;2.95;;
45077;SDS011;60508;42.622;25.416;2023-07-09T14:52:20;3.08;;;2.40;;
45077;SDS011;60508;42.622;25.416;2023-07-09T14:54:52;5.78;;;2.42;;
45077;SDS011;60508;42.622;25.416;2023-07-09T14:57:26;5.72;;;2.25;;
45077;SDS011;60508;42.622;25.416;2023-07-09T14:59:57;3.10;;;2.13;;
45077;SDS011;60508;42.622;25.416;2023-07-09T15:05:11;3.28;;;2.95;;
45077;SDS011;60508;42.622;25.416;2023-07-09T15:07:40;2.88;;;2.13;;
45077;SDS011;60508;42.622;25.416;2023-07-09T15:10:15;9.80;;;2.28;;
45077;SDS011;60508;42.622;25.416;2023-07-09T15:12:44;5.22;;;2.03;;
45077;SDS011;60508;42.622;25.416;2023-07-09T15:15:25;6.68;;;2.40;;
45077;SDS011;60508;42.622;25.416;2023-07-09T15:18:09;2.53;;;2.03;;
45077;SDS011;60508;42.622;25.416;2023-07-09T15:20:42;2.60;;;2.22;;
45077;SDS011;60508;42.622;25.416;2023-07-09T15:23:21;2.58;;;2.28;;
45077;SDS011;60508;42.622;25.416;2023-07-09T15:25:51;2.65;;;1.80;;
45077;SDS011;60508;42.622;25.416;2023-07-09T15:28:21;2.65;;;2.17;;
45077;SDS011;60508;42.622;25.416;2023-07-09T15:30:47;2.60;;;1.90;;
45077;SDS011;60508;42.622;25.416;2023-07-09T15:33:15;9.38;;;2.17;;
45077;SDS011;60508;42.622;25.416;2023-07-09T15:35:46;3.40;;;2.20;;
45077;SDS011;60508;42.622;25.416;2023-07-09T15:40:45;2.38;;;1.90;;
45077;SDS011;60508;42.622;25.416;2023-07-09T15:43:14;2.85;;;1.83;;
45077;SDS011;60508;42.622;25.416;2023-07-09T15:45:44;10.27;;;2.30;;
45077;SDS011;60508;42.622;25.416;2023-07-09T15:48:23;2.30;;;2.10;;
45077;SDS011;60508;42.622;25.416;2023-07-09T15:50:56;7.30;;;2.22;;
45077;SDS011;60508;42.622;25.416;2023-07-09T15:53:26;2.50;;;2.22;;
45077;SDS011;60508;42.622;25.416;2023-07-09T15:56:00;3.17;;;2.30;;
45077;SDS011;60508;42.622;25.416;2023-07-09T15:58:39;5.57;;;2.35;;
45077;SDS011;60508;42.622;25.416;2023-07-09T16:01:11;4.80;;;3.40;;
45077;SDS011;60508;42.622;25.416;2023-07-09T16:03:47;2.95;;;2.67;;
45077;SDS011;60508;42.622;25.416;2023-07-09T16:06:15;4.40;;;2.70;;
45077;SDS011;60508;42.622;25.416;2023-07-09T16:08:42;2.28;;;2.00;;
45077;SDS011;60508;42.622;25.416;2023-07-09T16:11:21;4.75;;;2.90;;